createdAt,value
2023-03-05T00:01:33.335Z,1.52
2023-03-05T00:04:05.715Z,1.49
2023-03-05T00:06:34.398Z,1.44
2023-03-05T00:09:03.560Z,1.38
2023-03-05T00:11:33.851Z,1.34
2023-03-05T00:14:04.251Z,1.28
2023-03-05T00:16:33.606Z,1.22
2023-03-05T00:19:01.829Z,1.13
2023-03-05T00:21:33.911Z,1.07
2023-03-05T00:24:04.212Z,1.01
2023-03-05T00:26:35.871Z,0.95
2023-03-05T00:29:04.334Z,0.90
2023-03-05T00:31:34.749Z,0.86
2023-03-05T00:34:07.608Z,0.83
2023-03-05T00:36:40.582Z,0.80
2023-03-05T00:39:08.685Z,0.74
2023-03-05T00:41:36.965Z,0.69
2023-03-05T00:44:05.430Z,0.66
2023-03-05T00:46:33.581Z,0.61
2023-03-05T00:49:01.772Z,0.57
2023-03-05T00:51:30.072Z,0.54
2023-03-05T00:53:58.157Z,0.48
2023-03-05T00:56:26.477Z,0.50
2023-03-05T00:58:55.652Z,0.48
2023-03-05T01:01:24.831Z,0.46
2023-03-05T01:03:52.823Z,0.45
2023-03-05T01:06:20.939Z,0.44
2023-03-05T01:08:50.289Z,0.40
2023-03-05T01:11:18.639Z,0.34
2023-03-05T01:13:46.635Z,0.26
2023-03-05T01:16:14.950Z,0.18
2023-03-05T01:18:43.136Z,0.11
2023-03-05T01:21:11.281Z,0.05
2023-03-05T01:23:39.320Z,0.02
2023-03-05T01:26:08.716Z,-0.02
2023-03-05T01:28:38.477Z,-0.06
2023-03-05T01:31:10.999Z,-0.12
2023-03-05T01:33:40.055Z,-0.15
2023-03-05T01:36:15.096Z,-0.20
2023-03-05T01:38:44.964Z,-0.22
2023-03-05T01:41:16.098Z,-0.27
2023-03-05T01:43:45.304Z,-0.30
2023-03-05T01:46:13.363Z,-0.32
2023-03-05T01:48:44.514Z,-0.32
2023-03-05T01:51:13.178Z,-0.33
2023-03-05T01:53:41.932Z,-0.36
2023-03-05T01:56:10.078Z,-0.39
2023-03-05T01:58:39.978Z,-0.43
2023-03-05T02:01:08.703Z,-0.48
2023-03-05T02:03:37.744Z,-0.51
2023-03-05T02:06:06.135Z,-0.55
2023-03-05T02:08:34.192Z,-0.59
2023-03-05T02:11:02.520Z,-0.63
2023-03-05T02:13:33.632Z,-0.65
2023-03-05T02:16:02.665Z,-0.68
2023-03-05T02:18:30.740Z,-0.70
2023-03-05T02:21:09.575Z,-0.71
2023-03-05T02:23:38.226Z,-0.74
2023-03-05T02:26:07.687Z,-0.78
2023-03-05T02:28:47.730Z,-0.82
2023-03-05T02:31:19.654Z,-0.86
2023-03-05T02:33:49.105Z,-0.86
2023-03-05T02:36:19.124Z,-0.85
2023-03-05T02:38:48.151Z,-0.85
2023-03-05T02:41:16.615Z,-0.86
2023-03-05T02:43:45.305Z,-0.83
2023-03-05T02:46:13.643Z,-0.74
2023-03-05T02:48:41.737Z,-0.63
2023-03-05T02:51:13.623Z,-0.53
2023-03-05T02:53:44.156Z,-0.46
2023-03-05T02:56:13.168Z,-0.44
2023-03-05T02:58:42.175Z,-0.40
2023-03-05T03:01:10.572Z,-0.38
2023-03-05T03:03:39.771Z,-0.39
2023-03-05T03:06:10.806Z,-0.39
2023-03-05T03:08:38.774Z,-0.41
2023-03-05T03:11:09.861Z,-0.43
2023-03-05T03:13:38.540Z,-0.44
2023-03-05T03:16:10.920Z,-0.47
2023-03-05T03:18:39.091Z,-0.51
2023-03-05T03:21:07.535Z,-0.52
2023-03-05T03:23:35.603Z,-0.54
2023-03-05T03:26:03.837Z,-0.58
2023-03-05T03:28:31.918Z,-0.62
2023-03-05T03:31:00.152Z,-0.66
2023-03-05T03:33:28.276Z,-0.63
2023-03-05T03:35:56.485Z,-0.59
2023-03-05T03:38:24.537Z,-0.56
2023-03-05T03:40:52.736Z,-0.53
2023-03-05T03:43:20.899Z,-0.54
2023-03-05T03:45:48.919Z,-0.52
2023-03-05T03:48:17.263Z,-0.49
2023-03-05T03:50:45.540Z,-0.46
2023-03-05T03:53:14.547Z,-0.42
2023-03-05T03:55:44.995Z,-0.39
2023-03-05T03:58:13.055Z,-0.36
2023-03-05T04:00:41.875Z,-0.34
2023-03-05T04:03:09.916Z,-0.33
2023-03-05T04:05:37.961Z,-0.33
2023-03-05T04:08:08.546Z,-0.35
2023-03-05T04:10:36.817Z,-0.35
2023-03-05T04:13:04.871Z,-0.37
2023-03-05T04:15:33.894Z,-0.37
2023-03-05T04:18:01.915Z,-0.37
2023-03-05T04:20:30.177Z,-0.36
2023-03-05T04:22:58.135Z,-0.35
2023-03-05T04:25:26.408Z,-0.31
2023-03-05T04:27:54.436Z,-0.31
2023-03-05T04:30:22.500Z,-0.30
2023-03-05T04:32:50.528Z,-0.31
2023-03-05T04:35:19.284Z,-0.32
2023-03-05T04:37:47.508Z,-0.33
2023-03-05T04:40:16.096Z,-0.38
2023-03-05T04:42:44.646Z,-0.42
2023-03-05T04:45:14.310Z,-0.47
2023-03-05T04:47:42.429Z,-0.49
2023-03-05T04:50:12.496Z,-0.49
2023-03-05T04:52:43.968Z,-0.56
2023-03-05T04:55:13.694Z,-0.55
2023-03-05T04:57:42.358Z,-0.58
2023-03-05T05:00:16.858Z,-0.62
2023-03-05T05:02:47.731Z,-0.67
2023-03-05T05:05:19.372Z,-0.71
2023-03-05T05:07:47.672Z,-0.76
2023-03-05T05:10:17.283Z,-0.78
2023-03-05T05:12:45.777Z,-0.81
2023-03-05T05:15:14.190Z,-0.83
2023-03-05T05:17:42.546Z,-0.84
2023-03-05T05:20:12.591Z,-0.88
2023-03-05T05:22:40.719Z,-0.92
2023-03-05T05:25:10.687Z,-0.92
2023-03-05T05:27:40.324Z,-0.92
2023-03-05T05:30:10.263Z,-0.92
2023-03-05T05:32:38.695Z,-0.89
2023-03-05T05:35:07.527Z,-0.88
2023-03-05T05:37:35.538Z,-0.88
2023-03-05T05:40:05.837Z,-0.89
2023-03-05T05:42:34.612Z,-0.85
2023-03-05T05:45:03.233Z,-0.82
2023-03-05T05:47:31.524Z,-0.79
2023-03-05T05:49:59.642Z,-0.72
2023-03-05T05:52:27.824Z,-0.65
2023-03-05T05:54:56.137Z,-0.55
2023-03-05T05:57:25.226Z,-0.51
2023-03-05T05:59:53.493Z,-0.40
2023-03-05T06:02:21.889Z,-0.34
2023-03-05T06:04:50.150Z,-0.25
2023-03-05T06:07:18.242Z,-0.20
2023-03-05T06:09:46.455Z,-0.10
2023-03-05T06:12:14.792Z,-0.02
2023-03-05T06:14:42.872Z,0.05
2023-03-05T06:17:14.814Z,0.12
2023-03-05T06:19:45.702Z,0.21
2023-03-05T06:22:13.756Z,0.30
2023-03-05T06:24:41.831Z,0.37
2023-03-05T06:27:10.114Z,0.42
2023-03-05T06:29:38.268Z,0.43
2023-03-05T06:32:06.914Z,0.38
2023-03-05T06:34:35.703Z,0.39
2023-03-05T06:37:04.034Z,0.47
2023-03-05T06:39:32.142Z,0.53
2023-03-05T06:42:00.165Z,0.62
2023-03-05T06:44:28.310Z,0.68
2023-03-05T06:46:56.576Z,0.73
2023-03-05T06:49:24.716Z,0.84
2023-03-05T06:51:52.830Z,0.74
2023-03-05T06:54:21.025Z,0.70
2023-03-05T06:56:49.292Z,0.75
2023-03-05T06:59:17.989Z,0.78
2023-03-05T07:01:46.042Z,0.81
2023-03-05T07:04:15.179Z,0.95
2023-03-05T07:06:44.919Z,0.91
2023-03-05T07:09:16.744Z,1.04
2023-03-05T07:11:44.925Z,1.05
2023-03-05T07:14:13.392Z,1.14
2023-03-05T07:16:41.613Z,1.30
2023-03-05T07:19:11.612Z,1.45
2023-03-05T07:21:40.252Z,1.61
2023-03-05T07:24:09.219Z,1.64
2023-03-05T07:26:37.286Z,1.70
2023-03-05T07:29:05.599Z,1.79
2023-03-05T07:31:34.044Z,1.81
2023-03-05T07:34:03.379Z,1.91
2023-03-05T07:36:31.846Z,1.98
2023-03-05T07:38:59.877Z,2.00
2023-03-05T07:41:28.094Z,2.13
2023-03-05T07:43:56.597Z,2.15
2023-03-05T07:46:31.898Z,2.14
2023-03-05T07:49:00.431Z,2.13
2023-03-05T07:51:29.376Z,2.22
2023-03-05T07:53:59.000Z,2.21
2023-03-05T07:56:35.459Z,2.42
2023-03-05T07:59:10.509Z,2.55
2023-03-05T08:01:38.644Z,2.63
2023-03-05T08:04:11.092Z,2.69
2023-03-05T08:06:41.353Z,2.71
2023-03-05T08:09:09.497Z,2.76
2023-03-05T08:11:37.556Z,2.92
2023-03-05T08:14:05.633Z,3.04
2023-03-05T08:16:33.841Z,3.24
2023-03-05T08:19:02.121Z,3.45
2023-03-05T08:21:35.862Z,3.61
2023-03-05T08:24:07.468Z,3.37
2023-03-05T08:26:38.547Z,3.29
2023-03-05T08:29:09.584Z,3.08
2023-03-05T08:31:38.592Z,3.10
2023-03-05T08:34:07.213Z,3.24
2023-03-05T08:36:35.501Z,3.14
2023-03-05T08:39:04.343Z,3.22
2023-03-05T08:41:32.916Z,3.24
2023-03-05T08:44:01.218Z,3.40
2023-03-05T08:46:29.859Z,3.47
2023-03-05T08:48:58.072Z,3.35
2023-03-05T08:51:27.165Z,3.24
2023-03-05T08:53:58.168Z,3.26
2023-03-05T08:56:28.621Z,3.48
2023-03-05T08:58:57.362Z,3.55
2023-03-05T09:01:25.476Z,3.82
2023-03-05T09:03:54.232Z,3.95
2023-03-05T09:06:22.300Z,4.08
2023-03-05T09:08:50.798Z,4.17
2023-03-05T09:11:19.481Z,4.43
2023-03-05T09:13:47.572Z,4.79
2023-03-05T09:16:19.055Z,5.05
2023-03-05T09:18:47.402Z,5.28
2023-03-05T09:21:17.585Z,5.52
2023-03-05T09:23:47.424Z,5.53
2023-03-05T09:26:19.187Z,5.61
2023-03-05T09:28:48.121Z,5.26
2023-03-05T09:31:17.382Z,4.95
2023-03-05T09:33:47.418Z,5.19
2023-03-05T09:36:19.799Z,5.24
2023-03-05T09:38:47.975Z,5.65
2023-03-05T09:41:25.466Z,5.92
2023-03-05T09:44:09.727Z,6.30
2023-03-05T09:46:51.117Z,6.63
2023-03-05T09:49:43.930Z,6.71
2023-03-05T09:52:21.114Z,6.54
2023-03-05T09:54:58.096Z,6.78
2023-03-05T09:57:43.630Z,7.03
2023-03-05T10:00:38.743Z,7.29
2023-03-05T10:03:30.644Z,7.02
2023-03-05T10:06:10.973Z,7.28
2023-03-05T10:08:58.293Z,7.22
2023-03-05T10:11:47.855Z,7.03
2023-03-05T10:14:31.050Z,6.97
2023-03-05T10:17:21.249Z,6.92
2023-03-05T10:20:22.965Z,7.04
2023-03-05T10:23:06.085Z,7.37
2023-03-05T10:25:46.133Z,7.57
2023-03-05T10:28:17.969Z,7.41
2023-03-05T10:31:10.971Z,7.23
2023-03-05T10:33:58.083Z,7.17
2023-03-05T10:37:02.372Z,7.09
2023-03-05T10:39:36.528Z,7.05
2023-03-05T10:42:31.469Z,7.06
2023-03-05T10:45:06.399Z,7.33
2023-03-05T10:47:52.598Z,7.32
2023-03-05T10:50:24.547Z,7.23
2023-03-05T10:53:34.207Z,7.06
2023-03-05T10:56:04.894Z,7.29
2023-03-05T10:58:33.640Z,7.40
2023-03-05T11:01:06.617Z,7.41
2023-03-05T11:04:00.810Z,7.51
2023-03-05T11:06:36.325Z,7.69
2023-03-05T11:09:16.743Z,7.74
2023-03-05T11:12:02.370Z,7.90
2023-03-05T11:14:34.866Z,7.99
2023-03-05T11:17:23.888Z,8.07
2023-03-05T11:19:52.344Z,7.96
2023-03-05T11:22:23.008Z,8.05
2023-03-05T11:25:15.052Z,8.07
2023-03-05T11:27:56.870Z,7.79
2023-03-05T11:30:29.329Z,7.43
2023-03-05T11:33:27.493Z,7.20
2023-03-05T11:36:24.020Z,6.87
2023-03-05T11:38:52.403Z,6.58
2023-03-05T11:41:51.708Z,6.33
2023-03-05T11:44:34.538Z,6.03
2023-03-05T11:47:18.404Z,5.72
2023-03-05T11:49:51.521Z,5.57
2023-03-05T11:52:32.260Z,5.41
2023-03-05T11:55:12.823Z,5.36
2023-03-05T11:58:12.545Z,5.33
2023-03-05T12:00:44.769Z,5.20
2023-03-05T12:03:19.392Z,5.13
2023-03-05T12:06:17.197Z,5.16
2023-03-05T12:08:52.155Z,5.20
2023-03-05T12:11:31.938Z,5.19
2023-03-05T12:13:59.894Z,5.31
2023-03-05T12:16:37.521Z,5.33
2023-03-05T12:19:18.528Z,5.34
2023-03-05T12:21:51.274Z,5.29
2023-03-05T12:24:27.891Z,5.29
2023-03-05T12:27:09.711Z,5.31
2023-03-05T12:29:43.070Z,5.36
2023-03-05T12:32:25.504Z,5.38
2023-03-05T12:35:05.755Z,5.36
2023-03-05T12:37:33.861Z,5.39
2023-03-05T12:40:05.014Z,5.43
2023-03-05T12:42:33.184Z,5.29
2023-03-05T12:45:11.920Z,5.21
2023-03-05T12:48:00.229Z,5.12
2023-03-05T12:50:28.321Z,5.10
2023-03-05T12:53:18.351Z,5.14
2023-03-05T12:56:12.685Z,5.08
2023-03-05T12:58:47.413Z,5.03
2023-03-05T13:01:28.596Z,5.08
2023-03-05T13:04:05.286Z,5.07
2023-03-05T13:06:35.556Z,5.04
2023-03-05T13:09:16.603Z,5.03
2023-03-05T13:11:51.015Z,5.06
2023-03-05T13:14:47.904Z,5.06
2023-03-05T13:17:34.732Z,5.12
2023-03-05T13:20:24.527Z,5.15
2023-03-05T13:23:05.014Z,5.07
2023-03-05T13:25:36.214Z,4.86
2023-03-05T13:28:07.013Z,4.72
2023-03-05T13:30:35.065Z,4.70
2023-03-05T13:33:05.012Z,4.67
2023-03-05T13:35:34.299Z,4.58
2023-03-05T13:38:02.567Z,4.52
2023-03-05T13:40:32.711Z,4.39
2023-03-05T13:43:20.838Z,4.35
2023-03-05T13:45:56.419Z,4.28
2023-03-05T13:48:27.306Z,4.23
2023-03-05T13:50:58.874Z,4.10
2023-03-05T13:53:29.768Z,4.16
2023-03-05T13:56:03.227Z,4.01
2023-03-05T13:58:48.323Z,4.02
2023-03-05T14:01:44.048Z,3.99
2023-03-05T14:04:15.528Z,3.96
2023-03-05T14:07:28.685Z,3.93
2023-03-05T14:09:56.797Z,3.96
2023-03-05T14:12:34.088Z,3.87
2023-03-05T14:15:06.894Z,3.87
2023-03-05T14:17:41.208Z,3.79
2023-03-05T14:20:28.774Z,3.80
2023-03-05T14:23:01.996Z,3.75
2023-03-05T14:25:39.587Z,3.64
2023-03-05T14:28:16.922Z,3.59
2023-03-05T14:30:47.227Z,3.56
2023-03-05T14:33:23.538Z,3.52
2023-03-05T14:35:53.039Z,3.44
2023-03-05T14:38:28.886Z,3.45
2023-03-05T14:40:56.961Z,3.41
2023-03-05T14:43:25.141Z,3.37
2023-03-05T14:45:53.281Z,3.34
2023-03-05T14:48:21.928Z,3.37
2023-03-05T14:50:56.705Z,3.27
2023-03-05T14:53:34.758Z,3.34
2023-03-05T14:56:02.937Z,3.33
2023-03-05T14:58:33.771Z,3.32
2023-03-05T15:01:02.243Z,3.19
2023-03-05T15:03:30.545Z,3.23
2023-03-05T15:05:59.355Z,3.17
2023-03-05T15:08:29.798Z,3.05
2023-03-05T15:10:59.516Z,3.06
2023-03-05T15:13:27.875Z,3.01
2023-03-05T15:15:56.513Z,2.94
2023-03-05T15:18:24.958Z,2.96
2023-03-05T15:20:53.316Z,2.93
2023-03-05T15:23:21.397Z,2.82
2023-03-05T15:25:50.495Z,2.78
2023-03-05T15:28:18.995Z,2.70
2023-03-05T15:30:48.223Z,2.62
2023-03-05T15:33:17.805Z,2.63
2023-03-05T15:35:46.303Z,2.66
2023-03-05T15:38:16.209Z,2.65
2023-03-05T15:40:45.210Z,2.64
2023-03-05T15:43:13.918Z,2.63
2023-03-05T15:45:42.382Z,2.60
2023-03-05T15:48:10.475Z,2.55
2023-03-05T15:50:43.428Z,2.51
2023-03-05T15:53:16.299Z,2.49
2023-03-05T15:55:45.479Z,2.46
2023-03-05T15:58:16.410Z,2.45
2023-03-05T16:00:47.485Z,2.41
2023-03-05T16:03:15.864Z,2.36
2023-03-05T16:05:44.372Z,2.35
2023-03-05T16:08:12.923Z,2.34
2023-03-05T16:10:41.076Z,2.33
2023-03-05T16:13:15.402Z,2.34
2023-03-05T16:15:45.384Z,2.27
2023-03-05T16:18:16.265Z,2.29
2023-03-05T16:20:45.180Z,2.21
2023-03-05T16:23:14.242Z,2.20
2023-03-05T16:25:42.430Z,2.21
2023-03-05T16:28:11.107Z,2.23
2023-03-05T16:30:40.142Z,2.26
2023-03-05T16:33:08.179Z,2.20
2023-03-05T16:35:36.688Z,2.21
2023-03-05T16:38:04.735Z,2.14
2023-03-05T16:41:05.612Z,2.14
2023-03-05T16:43:26.153Z,2.15
2023-03-05T16:45:54.189Z,2.22
2023-03-05T16:48:22.656Z,2.29
2023-03-05T16:50:51.016Z,2.31
2023-03-05T16:53:20.351Z,2.31
2023-03-05T16:55:48.414Z,2.19
2023-03-05T16:58:16.475Z,2.24
2023-03-05T17:00:44.752Z,2.20
2023-03-05T17:03:12.834Z,2.18
2023-03-05T17:05:41.049Z,2.21
2023-03-05T17:08:09.118Z,2.26
2023-03-05T17:10:37.677Z,2.23
2023-03-05T17:13:05.951Z,2.11
2023-03-05T17:15:34.153Z,2.19
2023-03-05T17:18:02.831Z,2.22
2023-03-05T17:20:31.711Z,2.21
2023-03-05T17:23:03.082Z,2.20
2023-03-05T17:25:31.294Z,2.12
2023-03-05T17:27:59.629Z,2.13
2023-03-05T17:30:28.524Z,2.08
2023-03-05T17:32:56.784Z,2.02
2023-03-05T17:35:25.120Z,2.05
2023-03-05T17:37:55.521Z,2.05
2023-03-05T17:40:24.932Z,2.00
2023-03-05T17:42:52.957Z,2.00
2023-03-05T17:45:21.296Z,2.07
2023-03-05T17:47:53.524Z,2.08
2023-03-05T17:50:21.657Z,2.06
2023-03-05T17:52:49.818Z,2.09
2023-03-05T17:55:18.834Z,2.06
2023-03-05T17:57:48.124Z,2.04
2023-03-05T18:00:20.600Z,1.99
2023-03-05T18:02:49.700Z,2.00
2023-03-05T18:05:20.131Z,1.97
2023-03-05T18:07:49.149Z,1.99
2023-03-05T18:10:20.804Z,1.96
2023-03-05T18:12:49.482Z,1.93
2023-03-05T18:15:19.799Z,1.91
2023-03-05T18:17:48.092Z,1.94
2023-03-05T18:20:33.392Z,1.91
2023-03-05T18:23:04.221Z,1.90
2023-03-05T18:25:32.592Z,1.92
2023-03-05T18:28:10.560Z,1.87
2023-03-05T18:30:42.904Z,1.81
2023-03-05T18:33:18.657Z,1.81
2023-03-05T18:35:49.724Z,1.85
2023-03-05T18:38:23.327Z,1.88
2023-03-05T18:40:54.352Z,1.87
2023-03-05T18:43:24.290Z,1.81
2023-03-05T18:45:54.954Z,1.78
2023-03-05T18:48:23.801Z,1.81
2023-03-05T18:50:53.658Z,1.84
2023-03-05T18:53:22.788Z,1.81
2023-03-05T18:55:52.697Z,1.68
2023-03-05T18:58:25.978Z,1.77
2023-03-05T19:00:54.316Z,1.77
2023-03-05T19:03:23.156Z,1.72
2023-03-05T19:05:52.296Z,1.78
2023-03-05T19:08:21.300Z,1.83
2023-03-05T19:10:49.285Z,1.88
2023-03-05T19:13:39.806Z,1.88
2023-03-05T19:16:17.856Z,1.83
2023-03-05T19:19:02.462Z,1.80
2023-03-05T19:21:39.992Z,1.79
2023-03-05T19:24:08.716Z,1.76
2023-03-05T19:26:36.886Z,1.72
2023-03-05T19:29:06.258Z,1.78
2023-03-05T19:31:34.718Z,1.82
2023-03-05T19:34:03.508Z,1.83
2023-03-05T19:36:31.884Z,1.78
2023-03-05T19:39:01.199Z,1.81
2023-03-05T19:41:29.603Z,1.84
2023-03-05T19:43:57.851Z,1.83
2023-03-05T19:46:26.180Z,1.87
2023-03-05T19:48:54.414Z,1.85
2023-03-05T19:51:25.573Z,1.84
2023-03-05T19:53:53.543Z,1.84
2023-03-05T19:56:21.680Z,1.80
2023-03-05T19:58:49.771Z,1.78
2023-03-05T20:01:23.547Z,1.75
2023-03-05T20:03:54.408Z,1.65
2023-03-05T20:06:24.081Z,1.75
2023-03-05T20:08:53.195Z,1.75
2023-03-05T20:11:22.261Z,1.75
2023-03-05T20:13:51.576Z,1.72
2023-03-05T20:16:25.426Z,1.70
2023-03-05T20:18:55.183Z,1.73
2023-03-05T20:21:29.124Z,1.73
2023-03-05T20:24:01.423Z,1.67
2023-03-05T20:26:33.503Z,1.72
2023-03-05T20:29:02.762Z,1.70
2023-03-05T20:31:34.078Z,1.71
2023-03-05T20:34:04.010Z,1.70
2023-03-05T20:36:34.602Z,1.63
2023-03-05T20:39:04.509Z,1.56
2023-03-05T20:41:34.225Z,1.53
2023-03-05T20:44:03.485Z,1.56
2023-03-05T20:46:34.236Z,1.48
2023-03-05T20:49:04.323Z,1.57
2023-03-05T20:51:36.216Z,1.54
2023-03-05T20:54:07.708Z,1.52
2023-03-05T20:56:36.651Z,1.43
2023-03-05T20:59:07.646Z,1.42
2023-03-05T21:01:38.580Z,1.45
2023-03-05T21:04:07.886Z,1.44
2023-03-05T21:06:37.316Z,1.37
2023-03-05T21:09:05.906Z,1.37
2023-03-05T21:11:35.920Z,1.48
2023-03-05T21:14:04.088Z,1.48
2023-03-05T21:16:32.189Z,1.48
2023-03-05T21:19:00.779Z,1.52
2023-03-05T21:21:28.829Z,1.56
2023-03-05T21:23:57.897Z,1.54
2023-03-05T21:26:25.984Z,1.44
2023-03-05T21:28:53.970Z,1.55
2023-03-05T21:31:23.148Z,1.57
2023-03-05T21:33:51.202Z,1.58
2023-03-05T21:36:19.757Z,1.57
2023-03-05T21:38:48.991Z,1.62
2023-03-05T21:41:18.339Z,1.63
2023-03-05T21:43:47.061Z,1.58
2023-03-05T21:46:15.134Z,1.54
2023-03-05T21:48:43.203Z,1.51
2023-03-05T21:52:00.742Z,1.46
2023-03-05T21:54:44.064Z,1.43
2023-03-05T21:57:12.366Z,1.36
2023-03-05T21:59:44.309Z,1.32
2023-03-05T22:02:14.151Z,1.32
2023-03-05T22:04:43.327Z,1.32
2023-03-05T22:07:12.429Z,1.27
2023-03-05T22:09:40.410Z,1.29
2023-03-05T22:12:43.198Z,1.23
2023-03-05T22:15:27.147Z,1.17
2023-03-05T22:17:55.263Z,1.17
2023-03-05T22:20:23.404Z,1.15
2023-03-05T22:22:52.094Z,1.14
2023-03-05T22:25:20.434Z,1.15
2023-03-05T22:27:48.503Z,1.14
2023-03-05T22:30:16.840Z,1.09
2023-03-05T22:32:45.022Z,1.03
2023-03-05T22:35:15.352Z,1.04
2023-03-05T22:37:44.074Z,0.91
2023-03-05T22:40:20.311Z,0.93
2023-03-05T22:42:48.947Z,0.97
2023-03-05T22:45:18.489Z,0.92
2023-03-05T22:47:49.470Z,0.82
2023-03-05T22:50:18.554Z,0.81
2023-03-05T22:52:46.924Z,0.79
2023-03-05T22:55:16.270Z,0.78
2023-03-05T22:57:45.433Z,0.72
2023-03-05T23:00:17.400Z,0.71
2023-03-05T23:02:45.702Z,0.64
2023-03-05T23:05:13.823Z,0.65
2023-03-05T23:07:43.850Z,0.59
2023-03-05T23:10:23.014Z,0.56
2023-03-05T23:12:54.306Z,0.49
2023-03-05T23:15:26.929Z,0.48
2023-03-05T23:17:55.491Z,0.42
2023-03-05T23:20:26.728Z,0.37
2023-03-05T23:22:56.257Z,0.35
2023-03-05T23:25:27.511Z,0.36
2023-03-05T23:27:57.981Z,0.31
2023-03-05T23:30:27.648Z,0.29
2023-03-05T23:32:57.450Z,0.26
2023-03-05T23:35:28.610Z,0.22
2023-03-05T23:37:58.508Z,0.15
2023-03-05T23:40:32.407Z,0.08
2023-03-05T23:43:01.018Z,0.02
2023-03-05T23:45:29.817Z,-0.05
2023-03-05T23:47:57.997Z,-0.11
2023-03-05T23:50:32.676Z,-0.16
2023-03-05T23:53:02.444Z,-0.21
2023-03-05T23:55:37.463Z,-0.24
2023-03-05T23:58:06.169Z,-0.25
